sensor_id;sensor_type;location;lat;lon;timestamp;pressure;altitude;pressure_sealevel;temperature;humidity
56737;BME280;42618;51.226;4.910;2022-08-06T00:02:25;49459.88;;;-146.94;65.17
56737;BME280;42618;51.226;4.910;2022-08-06T00:04:58;49483.81;;;-146.94;65.30
56737;BME280;42618;51.226;4.910;2022-08-06T00:07:25;49455.88;;;-146.94;65.49
56737;BME280;42618;51.226;4.910;2022-08-06T00:09:55;49503.72;;;-146.94;65.23
56737;BME280;42618;51.226;4.910;2022-08-06T00:12:31;49479.81;;;-146.94;65.24
56737;BME280;42618;51.226;4.910;2022-08-06T00:15:05;49465.84;;;-146.94;65.43
56737;BME280;42618;51.226;4.910;2022-08-06T00:17:43;49475.81;;;-146.94;65.16
56737;BME280;42618;51.226;4.910;2022-08-06T00:20:13;49485.78;;;-146.94;64.92
56737;BME280;42618;51.226;4.910;2022-08-06T00:22:57;49495.75;;;-146.94;64.71
56737;BME280;42618;51.226;4.910;2022-08-06T00:25:24;49479.81;;;-146.94;64.77
56737;BME280;42618;51.226;4.910;2022-08-06T00:27:51;49485.78;;;-146.94;65.94
56737;BME280;42618;51.226;4.910;2022-08-06T00:30:18;49467.84;;;-146.94;65.77
56737;BME280;42618;51.226;4.910;2022-08-06T00:32:48;49517.69;;;-146.94;65.74
56737;BME280;42618;51.226;4.910;2022-08-06T00:35:20;49491.78;;;-146.94;66.40
56737;BME280;42618;51.226;4.910;2022-08-06T00:37:55;49477.81;;;-146.94;65.77
56737;BME280;42618;51.226;4.910;2022-08-06T00:40:27;49479.81;;;-146.94;66.20
56737;BME280;42618;51.226;4.910;2022-08-06T00:42:59;49505.72;;;-146.94;66.43
56737;BME280;42618;51.226;4.910;2022-08-06T00:45:33;49491.78;;;-146.94;67.02
56737;BME280;42618;51.226;4.910;2022-08-06T00:48:03;49493.75;;;-146.94;66.73
56737;BME280;42618;51.226;4.910;2022-08-06T00:50:33;49503.72;;;-146.94;66.40
56737;BME280;42618;51.226;4.910;2022-08-06T00:53:01;49489.78;;;-146.94;66.89
56737;BME280;42618;51.226;4.910;2022-08-06T00:55:29;49495.75;;;-146.94;66.96
56737;BME280;42618;51.226;4.910;2022-08-06T00:58:02;49527.66;;;-146.94;67.06
56737;BME280;42618;51.226;4.910;2022-08-06T01:00:29;49527.66;;;-146.94;67.83
56737;BME280;42618;51.226;4.910;2022-08-06T01:03:02;49499.75;;;-146.94;68.13
56737;BME280;42618;51.226;4.910;2022-08-06T01:05:29;49493.75;;;-146.94;68.36
56737;BME280;42618;51.226;4.910;2022-08-06T01:08:16;49499.75;;;-146.94;68.43
56737;BME280;42618;51.226;4.910;2022-08-06T01:10:43;49499.75;;;-146.94;68.57
56737;BME280;42618;51.226;4.910;2022-08-06T01:13:11;49525.66;;;-146.94;68.79
56737;BME280;42618;51.226;4.910;2022-08-06T01:16:07;49517.69;;;-146.94;69.29
56737;BME280;42618;51.226;4.910;2022-08-06T01:18:45;49507.72;;;-146.94;69.25
56737;BME280;42618;51.226;4.910;2022-08-06T01:21:49;49491.78;;;-146.94;69.02
56737;BME280;42618;51.226;4.910;2022-08-06T01:30:16;49515.69;;;-146.94;69.93
56737;BME280;42618;51.226;4.910;2022-08-06T01:33:02;49519.69;;;-146.94;70.73
56737;BME280;42618;51.226;4.910;2022-08-06T01:35:44;49495.75;;;-146.94;71.07
56737;BME280;42618;51.226;4.910;2022-08-06T01:38:31;49463.88;;;-146.94;70.47
56737;BME280;42618;51.226;4.910;2022-08-06T01:41:05;49507.72;;;-146.94;70.79
56737;BME280;42618;51.226;4.910;2022-08-06T01:43:35;49505.72;;;-146.94;70.83
56737;BME280;42618;51.226;4.910;2022-08-06T01:46:24;49517.69;;;-146.94;71.17
56737;BME280;42618;51.226;4.910;2022-08-06T01:48:54;49515.69;;;-146.94;71.85
56737;BME280;42618;51.226;4.910;2022-08-06T01:51:23;49503.72;;;-146.94;71.91
56737;BME280;42618;51.226;4.910;2022-08-06T01:54:12;49507.72;;;-146.94;73.19
56737;BME280;42618;51.226;4.910;2022-08-06T01:56:48;49527.66;;;-146.94;73.42
56737;BME280;42618;51.226;4.910;2022-08-06T01:59:33;49533.63;;;-146.94;73.67
56737;BME280;42618;51.226;4.910;2022-08-06T02:02:05;49535.63;;;-146.94;73.72
56737;BME280;42618;51.226;4.910;2022-08-06T02:04:37;49517.69;;;-146.94;73.44
56737;BME280;42618;51.226;4.910;2022-08-06T02:07:08;49495.75;;;-146.94;73.47
56737;BME280;42618;51.226;4.910;2022-08-06T02:09:58;49519.69;;;-146.94;73.16
56737;BME280;42618;51.226;4.910;2022-08-06T02:12:26;49537.63;;;-146.94;73.23
56737;BME280;42618;51.226;4.910;2022-08-06T02:14:59;49497.75;;;-146.94;72.50
56737;BME280;42618;51.226;4.910;2022-08-06T02:17:29;49511.72;;;-146.94;72.21
56737;BME280;42618;51.226;4.910;2022-08-06T02:20:19;49523.66;;;-146.94;72.04
56737;BME280;42618;51.226;4.910;2022-08-06T02:23:05;49507.72;;;-146.94;72.42
56737;BME280;42618;51.226;4.910;2022-08-06T02:25:36;49493.75;;;-146.94;72.18
56737;BME280;42618;51.226;4.910;2022-08-06T02:28:07;49535.63;;;-146.94;72.10
56737;BME280;42618;51.226;4.910;2022-08-06T02:30:37;49469.84;;;-146.94;72.50
56737;BME280;42618;51.226;4.910;2022-08-06T02:33:09;49551.56;;;-146.94;72.57
56737;BME280;42618;51.226;4.910;2022-08-06T02:35:39;49529.66;;;-146.94;72.52
56737;BME280;42618;51.226;4.910;2022-08-06T02:38:48;49547.59;;;-146.94;72.45
56737;BME280;42618;51.226;4.910;2022-08-06T02:41:32;49561.53;;;-146.94;71.95
56737;BME280;42618;51.226;4.910;2022-08-06T02:44:17;49497.75;;;-146.94;71.35
56737;BME280;42618;51.226;4.910;2022-08-06T02:47:04;49523.66;;;-146.94;71.90
56737;BME280;42618;51.226;4.910;2022-08-06T02:49:45;49513.69;;;-146.94;71.78
56737;BME280;42618;51.226;4.910;2022-08-06T02:52:43;49483.81;;;-146.94;72.06
56737;BME280;42618;51.226;4.910;2022-08-06T02:55:25;49513.69;;;-146.94;72.27
56737;BME280;42618;51.226;4.910;2022-08-06T02:58:08;49547.59;;;-146.94;72.31
56737;BME280;42618;51.226;4.910;2022-08-06T03:00:42;49555.56;;;-146.94;73.09
56737;BME280;42618;51.226;4.910;2022-08-06T03:03:19;49521.69;;;-146.94;72.97
56737;BME280;42618;51.226;4.910;2022-08-06T03:06:03;49507.72;;;-146.94;72.59
56737;BME280;42618;51.226;4.910;2022-08-06T03:08:34;49525.66;;;-146.94;72.71
56737;BME280;42618;51.226;4.910;2022-08-06T03:11:04;49529.66;;;-146.94;73.08
56737;BME280;42618;51.226;4.910;2022-08-06T03:13:33;49553.56;;;-146.94;73.85
56737;BME280;42618;51.226;4.910;2022-08-06T03:16:03;49523.66;;;-146.94;73.64
56737;BME280;42618;51.226;4.910;2022-08-06T03:18:49;49527.66;;;-146.94;73.85
56737;BME280;42618;51.226;4.910;2022-08-06T03:21:38;49491.78;;;-146.94;74.08
56737;BME280;42618;51.226;4.910;2022-08-06T03:24:11;49539.63;;;-146.94;74.22
56737;BME280;42618;51.226;4.910;2022-08-06T03:26:42;49537.63;;;-146.94;74.56
56737;BME280;42618;51.226;4.910;2022-08-06T03:29:11;49543.59;;;-146.94;75.02
56737;BME280;42618;51.226;4.910;2022-08-06T03:31:40;49547.59;;;-146.94;76.21
56737;BME280;42618;51.226;4.910;2022-08-06T03:34:10;49545.59;;;-146.94;75.99
56737;BME280;42618;51.226;4.910;2022-08-06T03:36:39;49551.56;;;-146.94;75.24
56737;BME280;42618;51.226;4.910;2022-08-06T03:39:08;49511.72;;;-146.94;75.51
56737;BME280;42618;51.226;4.910;2022-08-06T03:41:48;49539.63;;;-146.94;76.65
56737;BME280;42618;51.226;4.910;2022-08-06T03:44:35;49517.69;;;-146.94;77.37
56737;BME280;42618;51.226;4.910;2022-08-06T03:47:12;49531.63;;;-146.94;77.28
56737;BME280;42618;51.226;4.910;2022-08-06T03:50:14;49539.63;;;-146.94;77.55
56737;BME280;42618;51.226;4.910;2022-08-06T03:52:45;49503.72;;;-146.94;77.68
56737;BME280;42618;51.226;4.910;2022-08-06T03:55:20;49539.63;;;-146.94;77.13
56737;BME280;42618;51.226;4.910;2022-08-06T03:57:51;49583.47;;;-146.94;77.11
56737;BME280;42618;51.226;4.910;2022-08-06T04:00:22;49547.59;;;-146.94;76.62
56737;BME280;42618;51.226;4.910;2022-08-06T04:02:56;49543.59;;;-146.94;76.77
56737;BME280;42618;51.226;4.910;2022-08-06T04:05:30;49513.69;;;-146.94;76.65
56737;BME280;42618;51.226;4.910;2022-08-06T04:08:00;49539.63;;;-146.94;76.46
56737;BME280;42618;51.226;4.910;2022-08-06T04:10:33;49527.66;;;-146.94;76.13
56737;BME280;42618;51.226;4.910;2022-08-06T04:13:05;49535.63;;;-146.94;76.62
56737;BME280;42618;51.226;4.910;2022-08-06T04:15:53;49547.59;;;-146.94;76.69
56737;BME280;42618;51.226;4.910;2022-08-06T04:18:32;49497.75;;;-146.94;75.90
56737;BME280;42618;51.226;4.910;2022-08-06T04:21:15;49523.66;;;-146.94;75.39
56737;BME280;42618;51.226;4.910;2022-08-06T04:23:48;49507.72;;;-146.94;74.77
56737;BME280;42618;51.226;4.910;2022-08-06T04:26:17;49549.59;;;-146.94;74.36
56737;BME280;42618;51.226;4.910;2022-08-06T04:28:48;49523.66;;;-146.94;74.31
56737;BME280;42618;51.226;4.910;2022-08-06T04:31:25;49519.69;;;-146.94;73.51
56737;BME280;42618;51.226;4.910;2022-08-06T04:34:14;49533.63;;;-146.94;73.87
56737;BME280;42618;51.226;4.910;2022-08-06T04:36:43;49519.69;;;-146.94;74.04
56737;BME280;42618;51.226;4.910;2022-08-06T04:39:20;49517.69;;;-146.94;73.94
56737;BME280;42618;51.226;4.910;2022-08-06T04:42:03;49543.59;;;-146.94;73.94
56737;BME280;42618;51.226;4.910;2022-08-06T04:44:31;49575.50;;;-146.94;73.61
56737;BME280;42618;51.226;4.910;2022-08-06T04:46:58;49517.69;;;-146.94;74.35
56737;BME280;42618;51.226;4.910;2022-08-06T04:49:25;49547.59;;;-146.94;73.85
56737;BME280;42618;51.226;4.910;2022-08-06T04:52:26;49487.78;;;-146.94;74.15
56737;BME280;42618;51.226;4.910;2022-08-06T04:55:12;49539.63;;;-146.94;73.27
56737;BME280;42618;51.226;4.910;2022-08-06T04:57:51;49543.59;;;-146.94;72.58
56737;BME280;42618;51.226;4.910;2022-08-06T05:00:23;49519.69;;;-146.94;73.09
56737;BME280;42618;51.226;4.910;2022-08-06T05:03:10;49561.53;;;-146.94;73.69
56737;BME280;42618;51.226;4.910;2022-08-06T05:08:26;49555.56;;;-146.94;74.22
56737;BME280;42618;51.226;4.910;2022-08-06T05:11:19;49543.59;;;-146.94;74.66
56737;BME280;42618;51.226;4.910;2022-08-06T05:13:56;49547.59;;;-146.94;75.65
56737;BME280;42618;51.226;4.910;2022-08-06T05:16:25;49553.56;;;-146.94;75.75
56737;BME280;42618;51.226;4.910;2022-08-06T05:18:58;49525.66;;;-146.94;76.33
56737;BME280;42618;51.226;4.910;2022-08-06T05:21:46;49567.53;;;-146.94;76.21
56737;BME280;42618;51.226;4.910;2022-08-06T05:24:34;49539.63;;;-146.94;76.26
56737;BME280;42618;51.226;4.910;2022-08-06T05:27:05;49501.75;;;-146.94;75.76
56737;BME280;42618;51.226;4.910;2022-08-06T05:29:32;49525.66;;;-146.94;75.77
56737;BME280;42618;51.226;4.910;2022-08-06T05:32:02;49559.56;;;-146.94;75.21
56737;BME280;42618;51.226;4.910;2022-08-06T05:34:30;49559.56;;;-146.94;74.56
56737;BME280;42618;51.226;4.910;2022-08-06T05:36:57;49571.50;;;-146.94;74.64
56737;BME280;42618;51.226;4.910;2022-08-06T05:39:24;49483.81;;;-146.94;74.34
56737;BME280;42618;51.226;4.910;2022-08-06T05:42:11;49531.63;;;-146.94;74.22
56737;BME280;42618;51.226;4.910;2022-08-06T05:44:38;49507.72;;;-146.94;73.74
56737;BME280;42618;51.226;4.910;2022-08-06T05:47:12;49523.66;;;-146.94;72.55
56737;BME280;42618;51.226;4.910;2022-08-06T05:49:47;49585.47;;;-146.94;71.91
56737;BME280;42618;51.226;4.910;2022-08-06T05:52:29;49501.75;;;-146.94;70.93
56737;BME280;42618;51.226;4.910;2022-08-06T05:55:02;49495.75;;;-146.94;71.50
56737;BME280;42618;51.226;4.910;2022-08-06T06:00:12;49521.69;;;-146.94;70.81
56737;BME280;42618;51.226;4.910;2022-08-06T06:02:59;49527.66;;;-146.94;71.32
56737;BME280;42618;51.226;4.910;2022-08-06T06:05:29;49519.69;;;-146.94;71.05
56737;BME280;42618;51.226;4.910;2022-08-06T06:08:16;49499.75;;;-146.94;71.56
56737;BME280;42618;51.226;4.910;2022-08-06T06:11:05;49507.72;;;-146.94;71.59
56737;BME280;42618;51.226;4.910;2022-08-06T06:13:37;49531.63;;;-146.94;71.62
56737;BME280;42618;51.226;4.910;2022-08-06T06:16:29;49509.72;;;-146.94;71.58
56737;BME280;42618;51.226;4.910;2022-08-06T06:19:01;49483.81;;;-146.94;72.73
56737;BME280;42618;51.226;4.910;2022-08-06T06:24:26;49479.81;;;-146.94;71.60
56737;BME280;42618;51.226;4.910;2022-08-06T06:27:15;49495.75;;;-146.94;69.34
56737;BME280;42618;51.226;4.910;2022-08-06T06:30:05;49491.78;;;-146.94;68.23
56737;BME280;42618;51.226;4.910;2022-08-06T06:33:11;49471.84;;;-146.94;67.95
56737;BME280;42618;51.226;4.910;2022-08-06T06:35:48;49497.75;;;-146.94;67.66
56737;BME280;42618;51.226;4.910;2022-08-06T06:38:46;49475.81;;;-146.94;67.87
56737;BME280;42618;51.226;4.910;2022-08-06T06:41:29;49503.72;;;-146.94;67.80
56737;BME280;42618;51.226;4.910;2022-08-06T06:44:19;49495.75;;;-146.94;68.02
56737;BME280;42618;51.226;4.910;2022-08-06T06:47:17;49459.88;;;-146.94;68.20
56737;BME280;42618;51.226;4.910;2022-08-06T06:50:03;49473.84;;;-146.94;66.96
56737;BME280;42618;51.226;4.910;2022-08-06T06:52:38;49467.84;;;-146.94;66.57
56737;BME280;42618;51.226;4.910;2022-08-06T06:57:51;49501.75;;;-146.94;67.15
56737;BME280;42618;51.226;4.910;2022-08-06T07:00:20;49487.78;;;-146.94;65.77
56737;BME280;42618;51.226;4.910;2022-08-06T07:03:07;49507.72;;;-146.94;65.27
56737;BME280;42618;51.226;4.910;2022-08-06T07:05:41;49469.84;;;-146.94;64.01
56737;BME280;42618;51.226;4.910;2022-08-06T07:08:30;49481.81;;;-146.94;62.94
56737;BME280;42618;51.226;4.910;2022-08-06T07:11:08;49503.72;;;-146.94;62.09
56737;BME280;42618;51.226;4.910;2022-08-06T07:13:37;49463.88;;;-146.94;60.93
56737;BME280;42618;51.226;4.910;2022-08-06T07:16:18;49451.91;;;-146.94;61.21
56737;BME280;42618;51.226;4.910;2022-08-06T07:19:03;49471.84;;;-146.94;61.37
56737;BME280;42618;51.226;4.910;2022-08-06T07:21:31;49463.88;;;-146.94;60.95
56737;BME280;42618;51.226;4.910;2022-08-06T07:23:58;49467.84;;;-146.94;58.46
56737;BME280;42618;51.226;4.910;2022-08-06T07:26:46;49475.81;;;-146.94;57.53
56737;BME280;42618;51.226;4.910;2022-08-06T07:29:18;49499.75;;;-146.94;57.57
56737;BME280;42618;51.226;4.910;2022-08-06T07:32:07;49463.88;;;-146.94;56.52
56737;BME280;42618;51.226;4.910;2022-08-06T07:34:55;49465.84;;;-146.94;56.20
56737;BME280;42618;51.226;4.910;2022-08-06T07:37:25;49431.97;;;-146.94;56.47
56737;BME280;42618;51.226;4.910;2022-08-06T07:40:07;49461.88;;;-146.94;54.14
56737;BME280;42618;51.226;4.910;2022-08-06T07:42:39;49455.88;;;-146.94;55.41
56737;BME280;42618;51.226;4.910;2022-08-06T07:45:08;49457.88;;;-146.94;54.61
56737;BME280;42618;51.226;4.910;2022-08-06T07:47:42;49459.88;;;-146.94;53.78
56737;BME280;42618;51.226;4.910;2022-08-06T07:50:22;49447.91;;;-146.94;53.87
56737;BME280;42618;51.226;4.910;2022-08-06T07:52:54;49459.88;;;-146.94;53.75
56737;BME280;42618;51.226;4.910;2022-08-06T07:55:26;49426.00;;;-146.94;54.83
56737;BME280;42618;51.226;4.910;2022-08-06T07:58:03;49433.97;;;-146.94;53.71
56737;BME280;42618;51.226;4.910;2022-08-06T08:00:31;49459.88;;;-146.94;53.25
56737;BME280;42618;51.226;4.910;2022-08-06T08:03:04;49467.84;;;-146.94;53.98
56737;BME280;42618;51.226;4.910;2022-08-06T08:06:09;49427.97;;;-146.94;53.17
56737;BME280;42618;51.226;4.910;2022-08-06T08:08:54;49408.06;;;-146.94;53.38
56737;BME280;42618;51.226;4.910;2022-08-06T08:11:23;49449.91;;;-146.94;52.43
56737;BME280;42618;51.226;4.910;2022-08-06T08:14:13;49445.94;;;-146.94;51.64
56737;BME280;42618;51.226;4.910;2022-08-06T08:16:44;49441.94;;;-146.94;50.63
56737;BME280;42618;51.226;4.910;2022-08-06T08:19:28;49437.94;;;-146.94;50.12
56737;BME280;42618;51.226;4.910;2022-08-06T08:22:15;49445.94;;;-146.94;49.73
56737;BME280;42618;51.226;4.910;2022-08-06T08:24:45;49414.03;;;-146.94;49.66
56737;BME280;42618;51.226;4.910;2022-08-06T08:27:20;49426.00;;;-146.94;49.43
56737;BME280;42618;51.226;4.910;2022-08-06T08:30:08;49431.97;;;-146.94;48.98
56737;BME280;42618;51.226;4.910;2022-08-06T08:32:40;49451.91;;;-146.94;49.57
56737;BME280;42618;51.226;4.910;2022-08-06T08:35:12;49410.03;;;-146.94;50.22
56737;BME280;42618;51.226;4.910;2022-08-06T08:37:43;49431.97;;;-146.94;49.04
56737;BME280;42618;51.226;4.910;2022-08-06T08:40:10;49467.84;;;-146.94;48.14
56737;BME280;42618;51.226;4.910;2022-08-06T08:42:42;49426.00;;;-146.94;48.49
56737;BME280;42618;51.226;4.910;2022-08-06T08:45:11;49427.97;;;-146.94;47.89
56737;BME280;42618;51.226;4.910;2022-08-06T08:47:46;49451.91;;;-146.94;49.73
56737;BME280;42618;51.226;4.910;2022-08-06T08:50:27;49437.94;;;-146.94;48.85
56737;BME280;42618;51.226;4.910;2022-08-06T08:53:12;49384.13;;;-146.94;47.62
56737;BME280;42618;51.226;4.910;2022-08-06T08:55:41;49420.00;;;-146.94;45.19
56737;BME280;42618;51.226;4.910;2022-08-06T08:58:28;49404.06;;;-146.94;45.54
56737;BME280;42618;51.226;4.910;2022-08-06T09:01:08;49408.06;;;-146.94;43.81
56737;BME280;42618;51.226;4.910;2022-08-06T09:03:55;49435.97;;;-146.94;43.34
56737;BME280;42618;51.226;4.910;2022-08-06T09:06:23;49412.03;;;-146.94;44.21
56737;BME280;42618;51.226;4.910;2022-08-06T09:08:57;49404.06;;;-146.94;44.02
56737;BME280;42618;51.226;4.910;2022-08-06T09:11:34;49416.03;;;-146.94;43.75
56737;BME280;42618;51.226;4.910;2022-08-06T09:14:21;49404.06;;;-146.94;44.64
56737;BME280;42618;51.226;4.910;2022-08-06T09:16:59;49396.09;;;-146.94;43.66
56737;BME280;42618;51.226;4.910;2022-08-06T09:19:27;49386.13;;;-146.94;43.92
56737;BME280;42618;51.226;4.910;2022-08-06T09:22:05;49439.94;;;-146.94;43.46
56737;BME280;42618;51.226;4.910;2022-08-06T09:24:35;49388.13;;;-146.94;43.50
56737;BME280;42618;51.226;4.910;2022-08-06T09:27:07;49439.94;;;-146.94;41.73
56737;BME280;42618;51.226;4.910;2022-08-06T09:30:00;49418.00;;;-146.94;41.01
56737;BME280;42618;51.226;4.910;2022-08-06T09:32:39;49392.09;;;-146.94;41.52
56737;BME280;42618;51.226;4.910;2022-08-06T09:38:08;49402.06;;;-146.94;40.91
56737;BME280;42618;51.226;4.910;2022-08-06T09:40:36;49394.09;;;-146.94;38.53
56737;BME280;42618;51.226;4.910;2022-08-06T09:43:08;49380.13;;;-146.94;38.64
56737;BME280;42618;51.226;4.910;2022-08-06T09:45:44;49388.13;;;-146.94;38.49
56737;BME280;42618;51.226;4.910;2022-08-06T09:48:12;49374.16;;;-146.94;38.87
56737;BME280;42618;51.226;4.910;2022-08-06T09:50:47;49376.16;;;-146.94;38.43
56737;BME280;42618;51.226;4.910;2022-08-06T09:53:16;49382.13;;;-146.94;38.54
56737;BME280;42618;51.226;4.910;2022-08-06T09:55:52;49376.16;;;-146.94;38.04
56737;BME280;42618;51.226;4.910;2022-08-06T09:58:33;49370.19;;;-146.94;38.69
56737;BME280;42618;51.226;4.910;2022-08-06T10:01:20;49336.28;;;-146.94;38.89
56737;BME280;42618;51.226;4.910;2022-08-06T10:03:50;49376.16;;;-146.94;38.64
56737;BME280;42618;51.226;4.910;2022-08-06T10:06:33;49356.22;;;-146.94;37.89
56737;BME280;42618;51.226;4.910;2022-08-06T10:09:08;49374.16;;;-146.94;37.43
56737;BME280;42618;51.226;4.910;2022-08-06T10:11:56;49328.31;;;-146.94;37.52
56737;BME280;42618;51.226;4.910;2022-08-06T10:14:33;49396.09;;;-146.94;36.30
56737;BME280;42618;51.226;4.910;2022-08-06T10:17:16;49368.19;;;-146.94;36.39
56737;BME280;42618;51.226;4.910;2022-08-06T10:19:45;49372.16;;;-146.94;35.92
56737;BME280;42618;51.226;4.910;2022-08-06T10:22:19;49376.16;;;-146.94;34.99
56737;BME280;42618;51.226;4.910;2022-08-06T10:24:51;49348.25;;;-146.94;36.15
56737;BME280;42618;51.226;4.910;2022-08-06T10:27:27;49364.19;;;-146.94;36.03
56737;BME280;42618;51.226;4.910;2022-08-06T10:30:06;49368.19;;;-146.94;36.38
56737;BME280;42618;51.226;4.910;2022-08-06T10:32:50;49370.19;;;-146.94;36.29
56737;BME280;42618;51.226;4.910;2022-08-06T10:35:22;49368.19;;;-146.94;36.45
56737;BME280;42618;51.226;4.910;2022-08-06T10:38:02;49368.19;;;-146.94;35.74
56737;BME280;42618;51.226;4.910;2022-08-06T10:40:43;49350.25;;;-146.94;35.55
56737;BME280;42618;51.226;4.910;2022-08-06T10:43:25;49362.19;;;-146.94;35.44
56737;BME280;42618;51.226;4.910;2022-08-06T10:46:03;49362.19;;;-146.94;34.70
56737;BME280;42618;51.226;4.910;2022-08-06T10:48:36;49324.31;;;-146.94;35.07
56737;BME280;42618;51.226;4.910;2022-08-06T10:51:24;49336.28;;;-146.94;34.62
56737;BME280;42618;51.226;4.910;2022-08-06T10:54:11;49328.31;;;-146.94;33.80
56737;BME280;42618;51.226;4.910;2022-08-06T10:56:48;49364.19;;;-146.94;33.43
56737;BME280;42618;51.226;4.910;2022-08-06T10:59:15;49332.31;;;-146.94;33.21
56737;BME280;42618;51.226;4.910;2022-08-06T11:04:52;49328.31;;;-146.94;33.84
56737;BME280;42618;51.226;4.910;2022-08-06T11:07:46;49366.19;;;-146.94;33.99
56737;BME280;42618;51.226;4.910;2022-08-06T11:10:47;49360.22;;;-146.94;33.45
56737;BME280;42618;51.226;4.910;2022-08-06T11:16:22;49332.31;;;-146.94;33.33
56737;BME280;42618;51.226;4.910;2022-08-06T11:21:41;49290.44;;;-146.94;32.05
56737;BME280;42618;51.226;4.910;2022-08-06T11:24:28;49336.28;;;-146.94;32.43
56737;BME280;42618;51.226;4.910;2022-08-06T11:26:58;49356.22;;;-146.94;31.72
56737;BME280;42618;51.226;4.910;2022-08-06T11:30:11;49312.38;;;-146.94;31.99
56737;BME280;42618;51.226;4.910;2022-08-06T11:32:43;49320.34;;;-146.94;31.11
56737;BME280;42618;51.226;4.910;2022-08-06T11:38:10;49346.25;;;-146.94;31.62
56737;BME280;42618;51.226;4.910;2022-08-06T11:41:01;49336.28;;;-146.94;31.82
56737;BME280;42618;51.226;4.910;2022-08-06T11:46:37;49296.41;;;-146.94;31.80
56737;BME280;42618;51.226;4.910;2022-08-06T11:49:21;49296.41;;;-146.94;30.42
56737;BME280;42618;51.226;4.910;2022-08-06T11:51:58;49284.47;;;-146.94;30.73
56737;BME280;42618;51.226;4.910;2022-08-06T12:07:45;49332.31;;;-146.94;29.84
56737;BME280;42618;51.226;4.910;2022-08-06T12:10:18;49300.41;;;-146.94;29.71
56737;BME280;42618;51.226;4.910;2022-08-06T12:12:55;49312.38;;;-146.94;29.88
56737;BME280;42618;51.226;4.910;2022-08-06T12:18:12;49292.44;;;-146.94;29.22
56737;BME280;42618;51.226;4.910;2022-08-06T12:20:55;49316.34;;;-146.94;29.04
56737;BME280;42618;51.226;4.910;2022-08-06T12:23:23;49292.44;;;-146.94;28.87
56737;BME280;42618;51.226;4.910;2022-08-06T12:26:10;49280.47;;;-146.94;28.26
56737;BME280;42618;51.226;4.910;2022-08-06T12:28:37;49292.44;;;-146.94;27.96
56737;BME280;42618;51.226;4.910;2022-08-06T12:31:04;49282.47;;;-146.94;28.22
56737;BME280;42618;51.226;4.910;2022-08-06T12:33:51;49298.41;;;-146.94;28.79
56737;BME280;42618;51.226;4.910;2022-08-06T12:36:17;49288.44;;;-146.94;28.82
56737;BME280;42618;51.226;4.910;2022-08-06T12:39:04;49284.47;;;-146.94;29.17
56737;BME280;42618;51.226;4.910;2022-08-06T12:41:40;49298.41;;;-146.94;29.48
56737;BME280;42618;51.226;4.910;2022-08-06T12:44:12;49344.25;;;-146.94;30.29
56737;BME280;42618;51.226;4.910;2022-08-06T12:46:53;49332.31;;;-146.94;31.24
56737;BME280;42618;51.226;4.910;2022-08-06T12:49:30;49344.25;;;-146.94;31.48
56737;BME280;42618;51.226;4.910;2022-08-06T12:52:17;49312.38;;;-146.94;31.35
56737;BME280;42618;51.226;4.910;2022-08-06T12:54:44;49294.44;;;-146.94;30.03
56737;BME280;42618;51.226;4.910;2022-08-06T12:57:25;49292.44;;;-146.94;29.35
56737;BME280;42618;51.226;4.910;2022-08-06T13:00:12;49274.50;;;-146.94;28.60
56737;BME280;42618;51.226;4.910;2022-08-06T13:02:41;49296.41;;;-146.94;28.55
56737;BME280;42618;51.226;4.910;2022-08-06T13:05:12;49284.47;;;-146.94;28.92
56737;BME280;42618;51.226;4.910;2022-08-06T13:07:41;49290.44;;;-146.94;28.71
56737;BME280;42618;51.226;4.910;2022-08-06T13:10:13;49274.50;;;-146.94;28.54
56737;BME280;42618;51.226;4.910;2022-08-06T13:13:02;49270.50;;;-146.94;28.24
56737;BME280;42618;51.226;4.910;2022-08-06T13:16:03;49274.50;;;-146.94;27.64
56737;BME280;42618;51.226;4.910;2022-08-06T13:18:30;49288.44;;;-146.94;28.52
56737;BME280;42618;51.226;4.910;2022-08-06T13:21:19;49308.38;;;-146.94;29.06
56737;BME280;42618;51.226;4.910;2022-08-06T13:23:48;49308.38;;;-146.94;29.83
56737;BME280;42618;51.226;4.910;2022-08-06T13:26:52;49302.41;;;-146.94;29.56
56737;BME280;42618;51.226;4.910;2022-08-06T13:29:23;49320.34;;;-146.94;28.82
56737;BME280;42618;51.226;4.910;2022-08-06T13:32:10;49316.34;;;-146.94;27.82
56737;BME280;42618;51.226;4.910;2022-08-06T13:35:00;49268.50;;;-146.94;27.72
56737;BME280;42618;51.226;4.910;2022-08-06T13:37:48;49264.53;;;-146.94;27.49
56737;BME280;42618;51.226;4.910;2022-08-06T13:40:48;49270.50;;;-146.94;27.05
56737;BME280;42618;51.226;4.910;2022-08-06T13:43:42;49238.63;;;-146.94;26.64
56737;BME280;42618;51.226;4.910;2022-08-06T13:46:26;49298.41;;;-146.94;27.48
56737;BME280;42618;51.226;4.910;2022-08-06T13:49:00;49314.34;;;-146.94;27.96
56737;BME280;42618;51.226;4.910;2022-08-06T13:51:37;49280.47;;;-146.94;28.40
56737;BME280;42618;51.226;4.910;2022-08-06T13:54:14;49280.47;;;-146.94;29.12
56737;BME280;42618;51.226;4.910;2022-08-06T13:56:47;49344.25;;;-146.94;28.92
56737;BME280;42618;51.226;4.910;2022-08-06T13:59:20;49308.38;;;-146.94;29.43
56737;BME280;42618;51.226;4.910;2022-08-06T14:02:12;49316.34;;;-146.94;29.43
56737;BME280;42618;51.226;4.910;2022-08-06T14:04:51;49320.34;;;-146.94;29.62
56737;BME280;42618;51.226;4.910;2022-08-06T14:07:18;49340.28;;;-146.94;29.56
56737;BME280;42618;51.226;4.910;2022-08-06T14:09:46;49254.56;;;-146.94;29.19
56737;BME280;42618;51.226;4.910;2022-08-06T14:12:38;49262.53;;;-146.94;27.82
56737;BME280;42618;51.226;4.910;2022-08-06T14:15:06;49232.63;;;-146.94;27.22
56737;BME280;42618;51.226;4.910;2022-08-06T14:17:38;49232.63;;;-146.94;27.08
56737;BME280;42618;51.226;4.910;2022-08-06T14:20:10;49228.66;;;-146.94;26.70
56737;BME280;42618;51.226;4.910;2022-08-06T14:22:49;49208.72;;;-146.94;26.01
56737;BME280;42618;51.226;4.910;2022-08-06T14:25:16;49204.72;;;-146.94;25.96